M/V Grande Caribe — WCX4495 — position and weather

sailwx.info

Track history (hours):
 
Tides and Currents Weather Stations Pressure Air Temp Water Temp Dewpoint Dewpoint Depression Visibility Wind Speed Wind Dir Waves Ship Positions

M/V Grande Caribe

Owner: AMERICAN CANADIAN CARIBBEAN LINE INC, WARREN, RI. More information available from US FCC via Universal Licensing System and Coast Guard Vessel Documentation Center.

Last reported at 2015-Jul-20 21:12 UTC. Time now 2015-Jul-30 20:14 UTC.
Position N 41°27' W 071°02'.
Warning: this ship's position is 9 days out of date.

Length 55 m; draft 2.1 m.

Type: Ship. MMSI: 369023000.

Date/timePositionNaut miles runAvg speedWind from/ knotsBaromVisibWave heightAir tempDewpointWater temp
2015-Jul-20 21:12N 41°27' W 071°02'710.3
2015-Jul-20 20:33N 41°26' W 071°10'9 9.0
2015-Jul-20 19:33N 41°35' W 071°13'5 4.8
2015-Jul-20 18:33N 41°38' W 071°18'5 1.0
2015-Jul-20 13:13N 41°43' W 071°17'0 0.0
2015-Jul-20 12:31N 41°43' W 071°17'0 0.0
2015-Jul-19 16:31N 41°43' W 071°17'0 0.0
2015-Jul-19 15:19N 41°43' W 071°17'0 0.0
2015-Jul-19 14:28N 41°43' W 071°17'0 0.0
2015-Jul-19 13:31N 41°43' W 071°17'0 0.0
2015-Jul-19 12:31N 41°43' W 071°17'0 0.0
2015-Jul-19 11:22N 41°43' W 071°17'1 1.2
2015-Jul-19 10:33N 41°43' W 071°18'1010.1
2015-Jul-19 09:31N 41°32' W 071°20'4 0.1
2015-Jul-17 21:28N 41°29' W 071°20'9 9.6
2015-Jul-17 20:32N 41°22' W 071°28'1111.2
2015-Jul-17 19:33N 41°13' W 071°36'2 1.7
2015-Jul-17 18:30N 41°11' W 071°35'0 0.0
2015-Jul-17 17:33N 41°11' W 071°35'0 0.0
2015-Jul-17 16:33N 41°11' W 071°35'0 0.0
2015-Jul-17 15:33N 41°11' W 071°35'0 0.0
2015-Jul-17 14:33N 41°11' W 071°35'0 0.0
2015-Jul-17 13:33N 41°11' W 071°35'0 0.0
2015-Jul-17 12:33N 41°11' W 071°35'7 6.6
2015-Jul-17 11:33N 41°17' W 071°31'7 7.3
2015-Jul-17 10:33N 41°20' W 071°22'10 9.5
2015-Jul-17 09:33N 41°23' W 071°10'1110.7
2015-Jul-17 08:33N 41°28' W 070°58'8 7.9
2015-Jul-17 07:33N 41°35' W 070°53'15 0.3
2015-Jul-15 11:25N 41°27' W 070°36'1 1.0
2015-Jul-15 10:28N 41°28' W 070°35'0 0.0
2015-Jul-15 06:04N 41°28' W 070°35'0 0.0
2015-Jul-15 05:31N 41°28' W 070°35'0 0.0
2015-Jul-15 00:31N 41°28' W 070°35'25 4.0
2015-Jul-14 18:17N 41°17' W 070°05'0 0.0
2015-Jul-14 17:33N 41°17' W 070°05'0 0.1
2015-Jul-14 16:33N 41°17' W 070°05'0 0.0
2015-Jul-14 15:33N 41°17' W 070°05'0 0.0
2015-Jul-14 14:33N 41°17' W 070°05'0 0.0
2015-Jul-14 13:29N 41°17' W 070°05'0 0.0
2015-Jul-14 12:19N 41°17' W 070°05'0 0.0
2015-Jul-14 11:29N 41°17' W 070°05'6 6.5
2015-Jul-14 10:33N 41°23' W 070°08'9 8.5
2015-Jul-14 09:33N 41°27' W 070°18'10 9.9
2015-Jul-14 08:33N 41°28' W 070°31'15 7.5
2015-Jul-14 06:33N 41°27' W 070°51'4 3.7
2015-Jul-14 05:33N 41°25' W 070°55'0 0.0
2015-Jul-14 04:33N 41°25' W 070°55'0 0.0
2015-Jul-14 03:30N 41°25' W 070°55'0 0.0
2015-Jul-14 02:33N 41°25' W 070°55'0 0.0
2015-Jul-14 01:30N 41°25' W 070°55'0 0.0
2015-Jul-14 00:33N 41°25' W 070°55'0 0.0
2015-Jul-13 23:33N 41°25' W 070°55'0 0.0
2015-Jul-13 22:33N 41°25' W 070°55'7 7.0
2015-Jul-13 21:33N 41°26' W 071°05'8 7.7
2015-Jul-13 20:33N 41°30' W 071°13'9 9.5
2015-Jul-13 19:33N 41°40' W 071°13'4 3.9
2015-Jul-13 18:33N 41°41' W 071°18'2 2.2
2015-Jul-13 17:33N 41°43' W 071°17'0 0.0
2015-Jul-13 16:33N 41°43' W 071°17'0 0.0
2015-Jul-13 15:32N 41°43' W 071°17'0 0.0
2015-Jul-13 14:33N 41°43' W 071°17'0 0.0
2015-Jul-13 13:33N 41°43' W 071°17'0 0.0
2015-Jul-13 12:33N 41°43' W 071°17'0 0.0
2015-Jul-13 11:33N 41°43' W 071°17'0 0.0
2015-Jul-13 10:33N 41°43' W 071°17'0 0.0
2015-Jul-13 09:33N 41°43' W 071°17'0 0.0
2015-Jul-13 08:33N 41°43' W 071°17'0 0.0
2015-Jul-13 07:33N 41°43' W 071°17'0 0.0
2015-Jul-13 06:33N 41°43' W 071°17'0 0.0
2015-Jul-13 05:33N 41°43' W 071°17'0 0.0
2015-Jul-13 04:33N 41°43' W 071°17'0 0.0
2015-Jul-13 03:33N 41°43' W 071°17'0 0.0
2015-Jul-13 02:33N 41°43' W 071°17'0 0.0
2015-Jul-13 01:34N 41°43' W 071°17'0 0.0
2015-Jul-13 00:28N 41°43' W 071°17'0 0.0
2015-Jul-12 23:33N 41°43' W 071°17'0 0.0
2015-Jul-12 22:30N 41°43' W 071°17'0 0.0
2015-Jul-12 21:20N 41°43' W 071°17'0 0.0
2015-Jul-12 20:33N 41°43' W 071°17'0 0.0
2015-Jul-12 19:29N 41°43' W 071°17'0 0.0
2015-Jul-12 18:32N 41°43' W 071°17'0 0.0
2015-Jul-12 17:19N 41°43' W 071°17'0 0.0
2015-Jul-12 16:33N 41°43' W 071°17'2 2.3
2015-Jul-12 15:31N 41°41' W 071°18'1110.1
2015-Jul-12 14:26N 41°30' W 071°21'2 2.0
2015-Jul-12 13:33N 41°29' W 071°20'0 0.0
2015-Jul-12 12:33N 41°29' W 071°20'0 0.0
2015-Jul-12 11:34N 41°29' W 071°20'5 4.8
2015-Jul-12 10:33N 41°25' W 071°24'7 7.1
2015-Jul-12 09:33N 41°20' W 071°31'7 7.2
2015-Jul-12 08:33N 41°19' W 071°41'7 6.9
2015-Jul-12 07:33N 41°17' W 071°50'6 6.3
2015-Jul-12 06:33N 41°15' W 071°57'7 7.1
2015-Jul-12 05:33N 41°14' W 072°07'8 8.0
2015-Jul-12 04:33N 41°13' W 072°17'8 8.4
2015-Jul-12 03:33N 41°10' W 072°28'8 8.2
2015-Jul-12 02:33N 41°08' W 072°39'9 9.4
2015-Jul-12 01:33N 41°06' W 072°51'1010.5
2015-Jul-12 00:33N 41°03' W 073°04'1110.6
2015-Jul-11 23:31N 41°01' W 073°18'3010.0
2015-Jul-11 20:33N 40°48' W 073°54'9 9.5
2015-Jul-11 19:34N 40°41' W 074°02'7 7.4
2015-Jul-11 18:33N 40°48' W 073°59'  
Track history (hours):
 
Tides and Currents Weather Stations Pressure Air Temp Water Temp Dewpoint Dewpoint Depression Visibility Wind Speed Wind Dir Waves Ship Positions

M/V Grande Caribe

Owner: AMERICAN CANADIAN CARIBBEAN LINE INC, WARREN, RI. More information available from US FCC via Universal Licensing System and Coast Guard Vessel Documentation Center.

Last reported at 2015-Jul-20 21:12 UTC. Time now 2015-Jul-30 20:14 UTC.
Position N 41°27' W 071°02'.
Warning: this ship's position is 9 days out of date.

Length 55 m; draft 2.1 m.

Type: Ship. MMSI: 369023000.

Date/timePositionNaut miles runAvg speedWind from/ knotsBaromVisibWave heightAir tempDewpointWater temp
2015-Jul-20 21:12N 41°27' W 071°02'710.3
2015-Jul-20 20:33N 41°26' W 071°10'9 9.0
2015-Jul-20 19:33N 41°35' W 071°13'5 4.8
2015-Jul-20 18:33N 41°38' W 071°18'5 1.0
2015-Jul-20 13:13N 41°43' W 071°17'0 0.0
2015-Jul-20 12:31N 41°43' W 071°17'0 0.0
2015-Jul-19 16:31N 41°43' W 071°17'0 0.0
2015-Jul-19 15:19N 41°43' W 071°17'0 0.0
2015-Jul-19 14:28N 41°43' W 071°17'0 0.0
2015-Jul-19 13:31N 41°43' W 071°17'0 0.0
2015-Jul-19 12:31N 41°43' W 071°17'0 0.0
2015-Jul-19 11:22N 41°43' W 071°17'1 1.2
2015-Jul-19 10:33N 41°43' W 071°18'1010.1
2015-Jul-19 09:31N 41°32' W 071°20'4 0.1
2015-Jul-17 21:28N 41°29' W 071°20'9 9.6
2015-Jul-17 20:32N 41°22' W 071°28'1111.2
2015-Jul-17 19:33N 41°13' W 071°36'2 1.7
2015-Jul-17 18:30N 41°11' W 071°35'0 0.0
2015-Jul-17 17:33N 41°11' W 071°35'0 0.0
2015-Jul-17 16:33N 41°11' W 071°35'0 0.0
2015-Jul-17 15:33N 41°11' W 071°35'0 0.0
2015-Jul-17 14:33N 41°11' W 071°35'0 0.0
2015-Jul-17 13:33N 41°11' W 071°35'0 0.0
2015-Jul-17 12:33N 41°11' W 071°35'7 6.6
2015-Jul-17 11:33N 41°17' W 071°31'7 7.3
2015-Jul-17 10:33N 41°20' W 071°22'10 9.5
2015-Jul-17 09:33N 41°23' W 071°10'1110.7
2015-Jul-17 08:33N 41°28' W 070°58'8 7.9
2015-Jul-17 07:33N 41°35' W 070°53'15 0.3
2015-Jul-15 11:25N 41°27' W 070°36'1 1.0
2015-Jul-15 10:28N 41°28' W 070°35'0 0.0
2015-Jul-15 06:04N 41°28' W 070°35'0 0.0
2015-Jul-15 05:31N 41°28' W 070°35'0 0.0
2015-Jul-15 00:31N 41°28' W 070°35'25 4.0
2015-Jul-14 18:17N 41°17' W 070°05'0 0.0
2015-Jul-14 17:33N 41°17' W 070°05'0 0.1
2015-Jul-14 16:33N 41°17' W 070°05'0 0.0
2015-Jul-14 15:33N 41°17' W 070°05'0 0.0
2015-Jul-14 14:33N 41°17' W 070°05'0 0.0
2015-Jul-14 13:29N 41°17' W 070°05'0 0.0
2015-Jul-14 12:19N 41°17' W 070°05'0 0.0
2015-Jul-14 11:29N 41°17' W 070°05'6 6.5
2015-Jul-14 10:33N 41°23' W 070°08'9 8.5
2015-Jul-14 09:33N 41°27' W 070°18'10 9.9
2015-Jul-14 08:33N 41°28' W 070°31'15 7.5
2015-Jul-14 06:33N 41°27' W 070°51'4 3.7
2015-Jul-14 05:33N 41°25' W 070°55'0 0.0
2015-Jul-14 04:33N 41°25' W 070°55'0 0.0
2015-Jul-14 03:30N 41°25' W 070°55'0 0.0
2015-Jul-14 02:33N 41°25' W 070°55'0 0.0
2015-Jul-14 01:30N 41°25' W 070°55'0 0.0
2015-Jul-14 00:33N 41°25' W 070°55'0 0.0
2015-Jul-13 23:33N 41°25' W 070°55'0 0.0
2015-Jul-13 22:33N 41°25' W 070°55'7 7.0
2015-Jul-13 21:33N 41°26' W 071°05'8 7.7
2015-Jul-13 20:33N 41°30' W 071°13'9 9.5
2015-Jul-13 19:33N 41°40' W 071°13'4 3.9
2015-Jul-13 18:33N 41°41' W 071°18'2 2.2
2015-Jul-13 17:33N 41°43' W 071°17'0 0.0
2015-Jul-13 16:33N 41°43' W 071°17'0 0.0
2015-Jul-13 15:32N 41°43' W 071°17'0 0.0
2015-Jul-13 14:33N 41°43' W 071°17'0 0.0
2015-Jul-13 13:33N 41°43' W 071°17'0 0.0
2015-Jul-13 12:33N 41°43' W 071°17'0 0.0
2015-Jul-13 11:33N 41°43' W 071°17'0 0.0
2015-Jul-13 10:33N 41°43' W 071°17'0 0.0
2015-Jul-13 09:33N 41°43' W 071°17'0 0.0
2015-Jul-13 08:33N 41°43' W 071°17'0 0.0
2015-Jul-13 07:33N 41°43' W 071°17'0 0.0
2015-Jul-13 06:33N 41°43' W 071°17'0 0.0
2015-Jul-13 05:33N 41°43' W 071°17'0 0.0
2015-Jul-13 04:33N 41°43' W 071°17'0 0.0
2015-Jul-13 03:33N 41°43' W 071°17'0 0.0
2015-Jul-13 02:33N 41°43' W 071°17'0 0.0
2015-Jul-13 01:34N 41°43' W 071°17'0 0.0
2015-Jul-13 00:28N 41°43' W 071°17'0 0.0
2015-Jul-12 23:33N 41°43' W 071°17'0 0.0
2015-Jul-12 22:30N 41°43' W 071°17'0 0.0
2015-Jul-12 21:20N 41°43' W 071°17'0 0.0
2015-Jul-12 20:33N 41°43' W 071°17'0 0.0
2015-Jul-12 19:29N 41°43' W 071°17'0 0.0
2015-Jul-12 18:32N 41°43' W 071°17'0 0.0
2015-Jul-12 17:19N 41°43' W 071°17'0 0.0
2015-Jul-12 16:33N 41°43' W 071°17'2 2.3
2015-Jul-12 15:31N 41°41' W 071°18'1110.1
2015-Jul-12 14:26N 41°30' W 071°21'2 2.0
2015-Jul-12 13:33N 41°29' W 071°20'0 0.0
2015-Jul-12 12:33N 41°29' W 071°20'0 0.0
2015-Jul-12 11:34N 41°29' W 071°20'5 4.8
2015-Jul-12 10:33N 41°25' W 071°24'7 7.1
2015-Jul-12 09:33N 41°20' W 071°31'7 7.2
2015-Jul-12 08:33N 41°19' W 071°41'7 6.9
2015-Jul-12 07:33N 41°17' W 071°50'6 6.3
2015-Jul-12 06:33N 41°15' W 071°57'7 7.1
2015-Jul-12 05:33N 41°14' W 072°07'8 8.0
2015-Jul-12 04:33N 41°13' W 072°17'8 8.4
2015-Jul-12 03:33N 41°10' W 072°28'8 8.2
2015-Jul-12 02:33N 41°08' W 072°39'9 9.4
2015-Jul-12 01:33N 41°06' W 072°51'1010.5
2015-Jul-12 00:33N 41°03' W 073°04'1110.6
2015-Jul-11 23:31N 41°01' W 073°18'3010.0
2015-Jul-11 20:33N 40°48' W 073°54'9 9.5
2015-Jul-11 19:34N 40°41' W 074°02'7 7.4
2015-Jul-11 18:33N 40°48' W 073°59'  

Dump ship's entire track history